EZY739 EGKK-LSZH
Flight info
| Callsign | EZY739 |
|---|---|
| Flight time | 1h 13m |
| Altitude | 29000 |
| Route | ODVIK Y311 DVR UL9 KONAN DCT KOK DCT REMBA DCT RITAX DCT SUTAL DCT GTQ DCT BAMEV DCT BLM |
| Aircraft | A20N/M-SDE2E3FGHIRWXY/LB1 |
Departure
| Time | 2026-05-07 14:18 |
|---|---|
| Airport | London Gatwick Airport (EGKK) |
Arrival
| Time | 2026-05-07 15:32 |
|---|---|
| Airport | Zürich Airport (LSZH) |
| Time | Latitude | Longitude | Altitude | Speed | Heading |
|---|---|---|---|---|---|
| 2026-05-07 13:43 | 51.15854 | -0.17512 | 204 ft | 0 kts | 348° |
| 2026-05-07 14:00 | 51.15851 | -0.17511 | 204 ft | 2 kts | 348° |
| 2026-05-07 14:01 | 51.15830 | -0.17505 | 204 ft | 3 kts | 352° |
| 2026-05-07 14:01 | 51.15808 | -0.17501 | 210 ft | 3 kts | 357° |
| 2026-05-07 14:01 | 51.15786 | -0.17501 | 213 ft | 3 kts | 9° |
| 2026-05-07 14:01 | 51.15767 | -0.17511 | 207 ft | 3 kts | 48° |
| 2026-05-07 14:02 | 51.15761 | -0.17523 | 213 ft | 1 kts | 77° |
| 2026-05-07 14:11 | 51.15760 | -0.17514 | 215 ft | 1 kts | 105° |
| 2026-05-07 14:11 | 51.15725 | -0.17499 | 206 ft | 15 kts | 169° |
| 2026-05-07 14:11 | 51.15716 | -0.17497 | 212 ft | 0 kts | 168° |
| 2026-05-07 14:12 | 51.15698 | -0.17490 | 214 ft | 9 kts | 167° |
| 2026-05-07 14:13 | 51.15604 | -0.17458 | 206 ft | 15 kts | 167° |
| 2026-05-07 14:13 | 51.15543 | -0.17449 | 212 ft | 6 kts | 158° |
| 2026-05-07 14:13 | 51.15465 | -0.17406 | 210 ft | 19 kts | 164° |
| 2026-05-07 14:13 | 51.15326 | -0.17379 | 204 ft | 18 kts | 208° |
| 2026-05-07 14:14 | 51.15284 | -0.17569 | 213 ft | 20 kts | 257° |
| 2026-05-07 14:14 | 51.15252 | -0.17794 | 206 ft | 22 kts | 257° |
| 2026-05-07 14:14 | 51.15218 | -0.18046 | 208 ft | 25 kts | 259° |
| 2026-05-07 14:14 | 51.15196 | -0.18328 | 209 ft | 25 kts | 254° |
| 2026-05-07 14:15 | 51.15147 | -0.18602 | 205 ft | 27 kts | 258° |
| 2026-05-07 14:15 | 51.15105 | -0.18904 | 207 ft | 29 kts | 257° |
| 2026-05-07 14:15 | 51.15061 | -0.19223 | 204 ft | 31 kts | 258° |
| 2026-05-07 14:15 | 51.15016 | -0.19566 | 208 ft | 32 kts | 257° |
| 2026-05-07 14:16 | 51.14964 | -0.19919 | 205 ft | 33 kts | 257° |
| 2026-05-07 14:16 | 51.14914 | -0.20288 | 202 ft | 35 kts | 259° |
| 2026-05-07 14:16 | 51.14864 | -0.20668 | 202 ft | 36 kts | 260° |
| 2026-05-07 14:16 | 51.14807 | -0.21059 | 208 ft | 34 kts | 255° |
| 2026-05-07 14:17 | 51.14749 | -0.21389 | 211 ft | 21 kts | 234° |
| 2026-05-07 14:17 | 51.14679 | -0.21333 | 201 ft | 12 kts | 101° |
| 2026-05-07 14:17 | 51.14692 | -0.21212 | 205 ft | 12 kts | 75° |
| 2026-05-07 14:17 | 51.14719 | -0.21011 | 205 ft | 23 kts | 74° |
| 2026-05-07 14:18 | 51.14775 | -0.20619 | 205 ft | 67 kts | 78° |
| 2026-05-07 14:18 | 51.14925 | -0.19535 | 205 ft | 129 kts | 78° |
| 2026-05-07 14:18 | 51.15144 | -0.17922 | 465 ft | 152 kts | 79° |
| 2026-05-07 14:18 | 51.15384 | -0.16333 | 1227 ft | 152 kts | 78° |
| 2026-05-07 14:19 | 51.15621 | -0.14572 | 1727 ft | 171 kts | 88° |
| 2026-05-07 14:19 | 51.15719 | -0.12634 | 2464 ft | 182 kts | 82° |
| 2026-05-07 14:19 | 51.16042 | -0.10561 | 3041 ft | 207 kts | 75° |
| 2026-05-07 14:19 | 51.16441 | -0.08098 | 3301 ft | 249 kts | 78° |
| 2026-05-07 14:20 | 51.16795 | -0.05291 | 4156 ft | 262 kts | 80° |
| 2026-05-07 14:20 | 51.16961 | -0.02353 | 4764 ft | 271 kts | 90° |
| 2026-05-07 14:20 | 51.16882 | 0.00573 | 4793 ft | 265 kts | 92° |
| 2026-05-07 14:20 | 51.16800 | 0.03518 | 4895 ft | 267 kts | 92° |
| 2026-05-07 14:21 | 51.16730 | 0.06473 | 4993 ft | 267 kts | 92° |
| 2026-05-07 14:21 | 51.16665 | 0.09434 | 5095 ft | 268 kts | 92° |
| 2026-05-07 14:21 | 51.16603 | 0.12402 | 5202 ft | 268 kts | 92° |
| 2026-05-07 14:21 | 51.16544 | 0.15381 | 5298 ft | 268 kts | 92° |
| 2026-05-07 14:22 | 51.16515 | 0.18332 | 5394 ft | 269 kts | 90° |
| 2026-05-07 14:22 | 51.16527 | 0.21313 | 5501 ft | 269 kts | 89° |
| 2026-05-07 14:22 | 51.16548 | 0.24302 | 5604 ft | 269 kts | 89° |
| 2026-05-07 14:22 | 51.16565 | 0.27292 | 5707 ft | 270 kts | 90° |
| 2026-05-07 14:23 | 51.16576 | 0.30288 | 5778 ft | 271 kts | 90° |
| 2026-05-07 14:23 | 51.16583 | 0.33290 | 5780 ft | 270 kts | 90° |
| 2026-05-07 14:23 | 51.16585 | 0.36284 | 5780 ft | 270 kts | 90° |
| 2026-05-07 14:23 | 51.16586 | 0.39231 | 5780 ft | 270 kts | 90° |
| 2026-05-07 14:24 | 51.16586 | 0.42235 | 5780 ft | 270 kts | 90° |
| 2026-05-07 14:24 | 51.16585 | 0.45197 | 5780 ft | 270 kts | 90° |
| 2026-05-07 14:24 | 51.16583 | 0.48170 | 5786 ft | 271 kts | 90° |
| 2026-05-07 14:24 | 51.16581 | 0.51187 | 5885 ft | 274 kts | 90° |
| 2026-05-07 14:25 | 51.16580 | 0.54253 | 6502 ft | 277 kts | 90° |
| 2026-05-07 14:25 | 51.16580 | 0.57327 | 7632 ft | 277 kts | 91° |
| 2026-05-07 14:25 | 51.16580 | 0.60396 | 8636 ft | 283 kts | 91° |
| 2026-05-07 14:25 | 51.16579 | 0.63571 | 9685 ft | 288 kts | 92° |
| 2026-05-07 14:26 | 51.16575 | 0.66829 | 10483 ft | 301 kts | 92° |
| 2026-05-07 14:26 | 51.16566 | 0.70287 | 10917 ft | 325 kts | 91° |
| 2026-05-07 14:26 | 51.16558 | 0.73964 | 11443 ft | 342 kts | 91° |
| 2026-05-07 14:26 | 51.16550 | 0.77769 | 12384 ft | 345 kts | 91° |
| 2026-05-07 14:27 | 51.16541 | 0.81623 | 13328 ft | 349 kts | 91° |
| 2026-05-07 14:27 | 51.16532 | 0.85544 | 14185 ft | 355 kts | 91° |
| 2026-05-07 14:27 | 51.16519 | 0.89516 | 14952 ft | 361 kts | 91° |
| 2026-05-07 14:27 | 51.16504 | 0.93506 | 15732 ft | 366 kts | 91° |
| 2026-05-07 14:28 | 51.16488 | 0.97611 | 16517 ft | 371 kts | 91° |
| 2026-05-07 14:28 | 51.16470 | 1.01752 | 17281 ft | 376 kts | 91° |
| 2026-05-07 14:28 | 51.16450 | 1.05961 | 18014 ft | 382 kts | 91° |
| 2026-05-07 14:28 | 51.16429 | 1.10243 | 18701 ft | 387 kts | 91° |
| 2026-05-07 14:29 | 51.16406 | 1.14516 | 19364 ft | 391 kts | 91° |
| 2026-05-07 14:29 | 51.16381 | 1.18877 | 20030 ft | 395 kts | 91° |
| 2026-05-07 14:29 | 51.16353 | 1.23292 | 20703 ft | 399 kts | 91° |
| 2026-05-07 14:29 | 51.16324 | 1.27696 | 21343 ft | 404 kts | 91° |
| 2026-05-07 14:30 | 51.16293 | 1.32204 | 21977 ft | 408 kts | 91° |
| 2026-05-07 14:30 | 51.16229 | 1.36747 | 22606 ft | 412 kts | 95° |
| 2026-05-07 14:30 | 51.16002 | 1.41316 | 23227 ft | 416 kts | 95° |
| 2026-05-07 14:30 | 51.15783 | 1.45873 | 23826 ft | 419 kts | 95° |
| 2026-05-07 14:31 | 51.15563 | 1.50535 | 24362 ft | 423 kts | 95° |
| 2026-05-07 14:31 | 51.15339 | 1.55218 | 24885 ft | 426 kts | 95° |
| 2026-05-07 14:31 | 51.15112 | 1.59947 | 25395 ft | 429 kts | 95° |
| 2026-05-07 14:31 | 51.14881 | 1.64709 | 25896 ft | 432 kts | 95° |
| 2026-05-07 14:32 | 51.14643 | 1.69495 | 26382 ft | 436 kts | 95° |
| 2026-05-07 14:32 | 51.14411 | 1.74117 | 26842 ft | 439 kts | 95° |
| 2026-05-07 14:32 | 51.14164 | 1.78983 | 27300 ft | 442 kts | 95° |
| 2026-05-07 14:32 | 51.13917 | 1.83821 | 27764 ft | 445 kts | 95° |
| 2026-05-07 14:33 | 51.13662 | 1.88767 | 28199 ft | 448 kts | 96° |
| 2026-05-07 14:33 | 51.13405 | 1.93744 | 28635 ft | 451 kts | 96° |
| 2026-05-07 14:33 | 51.13144 | 1.98752 | 28906 ft | 454 kts | 96° |
| 2026-05-07 14:33 | 51.12884 | 2.03699 | 29016 ft | 454 kts | 96° |
| 2026-05-07 14:34 | 51.12617 | 2.08730 | 29072 ft | 455 kts | 96° |
| 2026-05-07 14:34 | 51.12169 | 2.17084 | 29074 ft | 454 kts | 96° |
| 2026-05-07 14:35 | 51.11537 | 2.28672 | 29070 ft | 454 kts | 96° |
| 2026-05-07 14:35 | 51.11075 | 2.37021 | 29063 ft | 454 kts | 96° |
| 2026-05-07 14:36 | 51.10518 | 2.46945 | 29070 ft | 454 kts | 96° |
| 2026-05-07 14:36 | 51.09950 | 2.56903 | 29070 ft | 454 kts | 96° |
| 2026-05-07 14:37 | 51.09138 | 2.66864 | 29067 ft | 453 kts | 104° |
| 2026-05-07 14:37 | 51.06574 | 2.81156 | 29068 ft | 452 kts | 107° |
| 2026-05-07 14:38 | 51.04829 | 2.90781 | 29074 ft | 451 kts | 107° |
| 2026-05-07 14:38 | 51.03089 | 3.00308 | 29073 ft | 451 kts | 108° |
| 2026-05-07 14:39 | 51.01332 | 3.09872 | 29074 ft | 451 kts | 108° |
| 2026-05-07 14:39 | 50.99556 | 3.19483 | 29072 ft | 451 kts | 108° |
| 2026-05-07 14:40 | 50.97790 | 3.28993 | 29070 ft | 451 kts | 108° |
| 2026-05-07 14:40 | 50.96002 | 3.38574 | 29069 ft | 452 kts | 108° |
| 2026-05-07 14:41 | 50.94219 | 3.48076 | 29076 ft | 452 kts | 108° |
| 2026-05-07 14:41 | 50.92418 | 3.57629 | 29075 ft | 452 kts | 108° |
| 2026-05-07 14:42 | 50.90648 | 3.66971 | 29073 ft | 452 kts | 108° |
| 2026-05-07 14:42 | 50.88841 | 3.76458 | 29072 ft | 452 kts | 108° |
| 2026-05-07 14:43 | 50.87017 | 3.85987 | 29074 ft | 451 kts | 108° |
| 2026-05-07 14:43 | 50.85185 | 3.95512 | 29075 ft | 451 kts | 108° |
| 2026-05-07 14:44 | 50.83357 | 4.04963 | 29073 ft | 451 kts | 108° |
| 2026-05-07 14:44 | 50.81508 | 4.14482 | 29074 ft | 451 kts | 108° |
| 2026-05-07 14:45 | 50.79654 | 4.23975 | 29070 ft | 452 kts | 108° |
| 2026-05-07 14:45 | 50.77802 | 4.33410 | 29075 ft | 452 kts | 108° |
| 2026-05-07 14:46 | 50.75929 | 4.42907 | 29075 ft | 452 kts | 109° |
| 2026-05-07 14:46 | 50.74046 | 4.52409 | 29075 ft | 452 kts | 109° |
| 2026-05-07 14:47 | 50.72194 | 4.61712 | 29073 ft | 452 kts | 109° |
| 2026-05-07 14:47 | 50.70303 | 4.71156 | 29069 ft | 451 kts | 109° |
| 2026-05-07 14:48 | 50.68404 | 4.80602 | 29072 ft | 451 kts | 109° |
| 2026-05-07 14:48 | 50.66198 | 4.89700 | 29073 ft | 449 kts | 120° |
| 2026-05-07 14:49 | 50.62377 | 4.97402 | 29075 ft | 445 kts | 137° |
| 2026-05-07 14:49 | 50.57940 | 5.04234 | 29069 ft | 445 kts | 137° |
| 2026-05-07 14:50 | 50.53544 | 5.11035 | 29060 ft | 445 kts | 137° |
| 2026-05-07 14:50 | 50.49109 | 5.17871 | 29067 ft | 446 kts | 137° |
| 2026-05-07 14:51 | 50.44662 | 5.24708 | 29067 ft | 446 kts | 137° |
| 2026-05-07 14:51 | 50.40243 | 5.31483 | 29066 ft | 446 kts | 137° |
| 2026-05-07 14:52 | 50.35822 | 5.38240 | 29061 ft | 446 kts | 137° |
| 2026-05-07 14:52 | 50.31408 | 5.44970 | 29061 ft | 446 kts | 137° |
| 2026-05-07 14:53 | 50.26978 | 5.51703 | 29061 ft | 447 kts | 137° |
| 2026-05-07 14:53 | 50.22499 | 5.58493 | 29061 ft | 447 kts | 137° |
| 2026-05-07 14:54 | 50.18057 | 5.65211 | 29059 ft | 447 kts | 137° |
| 2026-05-07 14:54 | 50.13567 | 5.71980 | 29059 ft | 447 kts | 137° |
| 2026-05-07 14:55 | 50.09072 | 5.78700 | 29052 ft | 447 kts | 139° |
| 2026-05-07 14:55 | 50.04073 | 5.84312 | 29047 ft | 445 kts | 150° |
| 2026-05-07 14:56 | 49.98822 | 5.89365 | 29052 ft | 445 kts | 149° |
| 2026-05-07 14:56 | 49.93553 | 5.94450 | 29054 ft | 446 kts | 149° |
| 2026-05-07 14:57 | 49.88277 | 5.99533 | 29043 ft | 445 kts | 149° |
| 2026-05-07 14:57 | 49.83005 | 6.04599 | 29046 ft | 445 kts | 149° |
| 2026-05-07 14:58 | 49.77726 | 6.09658 | 29046 ft | 446 kts | 150° |
| 2026-05-07 14:58 | 49.72504 | 6.14649 | 29050 ft | 446 kts | 150° |
| 2026-05-07 14:59 | 49.67215 | 6.19691 | 29049 ft | 446 kts | 150° |
| 2026-05-07 14:59 | 49.61990 | 6.24659 | 29047 ft | 445 kts | 150° |
| 2026-05-07 15:00 | 49.56695 | 6.29680 | 29045 ft | 447 kts | 150° |
| 2026-05-07 15:00 | 49.51386 | 6.34702 | 29049 ft | 448 kts | 150° |
| 2026-05-07 15:01 | 49.46020 | 6.39580 | 29045 ft | 447 kts | 155° |
| 2026-05-07 15:01 | 49.40383 | 6.43451 | 29046 ft | 446 kts | 158° |
| 2026-05-07 15:02 | 49.34676 | 6.47326 | 29045 ft | 446 kts | 158° |
| 2026-05-07 15:02 | 49.29143 | 6.51081 | 29044 ft | 446 kts | 158° |
| 2026-05-07 15:03 | 49.23449 | 6.54936 | 29044 ft | 446 kts | 158° |
| 2026-05-07 15:03 | 49.17757 | 6.58780 | 29046 ft | 446 kts | 158° |
| 2026-05-07 15:04 | 49.12110 | 6.62583 | 29045 ft | 446 kts | 158° |
| 2026-05-07 15:04 | 49.06400 | 6.66419 | 29046 ft | 449 kts | 158° |
| 2026-05-07 15:05 | 49.00680 | 6.70254 | 29049 ft | 448 kts | 158° |
| 2026-05-07 15:05 | 48.94929 | 6.73953 | 29048 ft | 448 kts | 160° |
| 2026-05-07 15:06 | 48.89101 | 6.77338 | 29046 ft | 448 kts | 161° |
| 2026-05-07 15:06 | 48.83317 | 6.80718 | 29045 ft | 448 kts | 160° |
| 2026-05-07 15:07 | 48.77497 | 6.84149 | 29046 ft | 447 kts | 160° |
| 2026-05-07 15:07 | 48.71683 | 6.87576 | 29042 ft | 448 kts | 160° |
| 2026-05-07 15:08 | 48.65953 | 6.90945 | 29049 ft | 448 kts | 160° |
| 2026-05-07 15:08 | 48.60136 | 6.94357 | 29046 ft | 448 kts | 160° |
| 2026-05-07 15:09 | 48.54315 | 6.97761 | 29051 ft | 448 kts | 160° |
| 2026-05-07 15:09 | 48.48528 | 7.01137 | 29047 ft | 448 kts | 160° |
| 2026-05-07 15:10 | 48.42698 | 7.04531 | 29041 ft | 448 kts | 161° |
| 2026-05-07 15:10 | 48.36907 | 7.07894 | 29047 ft | 447 kts | 161° |
| 2026-05-07 15:11 | 48.31202 | 7.11199 | 29043 ft | 448 kts | 161° |
| 2026-05-07 15:11 | 48.25380 | 7.14562 | 29046 ft | 448 kts | 161° |
| 2026-05-07 15:12 | 48.19588 | 7.17902 | 29041 ft | 446 kts | 161° |
| 2026-05-07 15:12 | 48.13775 | 7.21244 | 28744 ft | 445 kts | 161° |
| 2026-05-07 15:13 | 48.10923 | 7.22882 | 28468 ft | 442 kts | 161° |
| 2026-05-07 15:13 | 48.08053 | 7.24529 | 28194 ft | 439 kts | 161° |
| 2026-05-07 15:13 | 48.05202 | 7.26161 | 27921 ft | 436 kts | 161° |
| 2026-05-07 15:13 | 48.02372 | 7.27780 | 27645 ft | 433 kts | 161° |
| 2026-05-07 15:14 | 47.99561 | 7.29386 | 27382 ft | 432 kts | 161° |
| 2026-05-07 15:14 | 47.96785 | 7.30970 | 26970 ft | 431 kts | 161° |
| 2026-05-07 15:14 | 47.93976 | 7.32571 | 26410 ft | 428 kts | 161° |
| 2026-05-07 15:14 | 47.91227 | 7.34136 | 25864 ft | 423 kts | 161° |
| 2026-05-07 15:15 | 47.88494 | 7.35690 | 25312 ft | 418 kts | 161° |
| 2026-05-07 15:15 | 47.85789 | 7.37227 | 24769 ft | 413 kts | 161° |
| 2026-05-07 15:15 | 47.83117 | 7.38744 | 24227 ft | 408 kts | 161° |
| 2026-05-07 15:15 | 47.80474 | 7.40242 | 23676 ft | 403 kts | 161° |
| 2026-05-07 15:16 | 47.77858 | 7.41724 | 23107 ft | 398 kts | 161° |
| 2026-05-07 15:16 | 47.75318 | 7.43160 | 22496 ft | 393 kts | 161° |
| 2026-05-07 15:16 | 47.72754 | 7.44609 | 21818 ft | 392 kts | 161° |
| 2026-05-07 15:16 | 47.70216 | 7.46042 | 21361 ft | 388 kts | 161° |
| 2026-05-07 15:17 | 47.67707 | 7.47457 | 20847 ft | 383 kts | 161° |
| 2026-05-07 15:17 | 47.65376 | 7.49066 | 20344 ft | 381 kts | 149° |
| 2026-05-07 15:17 | 47.63393 | 7.51681 | 19837 ft | 380 kts | 130° |
| 2026-05-07 15:17 | 47.62080 | 7.55020 | 19324 ft | 379 kts | 112° |
| 2026-05-07 15:18 | 47.61213 | 7.58691 | 18819 ft | 377 kts | 110° |
| 2026-05-07 15:18 | 47.60376 | 7.62324 | 18281 ft | 376 kts | 110° |
| 2026-05-07 15:18 | 47.59530 | 7.65978 | 17779 ft | 372 kts | 110° |
| 2026-05-07 15:18 | 47.58680 | 7.69625 | 17439 ft | 376 kts | 110° |
| 2026-05-07 15:19 | 47.57823 | 7.73277 | 16937 ft | 381 kts | 110° |
| 2026-05-07 15:19 | 47.56947 | 7.76999 | 16334 ft | 383 kts | 110° |
| 2026-05-07 15:19 | 47.56075 | 7.80704 | 15882 ft | 377 kts | 111° |
| 2026-05-07 15:19 | 47.55217 | 7.84347 | 15363 ft | 372 kts | 111° |
| 2026-05-07 15:20 | 47.54368 | 7.87938 | 14867 ft | 368 kts | 111° |
| 2026-05-07 15:20 | 47.53809 | 7.90300 | 14518 ft | 365 kts | 111° |
| 2026-05-07 15:20 | 47.52972 | 7.93834 | 14032 ft | 361 kts | 111° |
| 2026-05-07 15:20 | 47.52146 | 7.97313 | 13628 ft | 354 kts | 111° |
| 2026-05-07 15:21 | 47.51326 | 8.00756 | 13348 ft | 360 kts | 111° |
| 2026-05-07 15:21 | 47.50566 | 8.04324 | 13082 ft | 362 kts | 105° |
| 2026-05-07 15:21 | 47.50157 | 8.07939 | 12821 ft | 359 kts | 99° |
| 2026-05-07 15:21 | 47.49827 | 8.11597 | 12552 ft | 358 kts | 99° |
| 2026-05-07 15:22 | 47.49489 | 8.15244 | 12310 ft | 357 kts | 99° |
| 2026-05-07 15:22 | 47.49146 | 8.18884 | 12038 ft | 356 kts | 99° |
| 2026-05-07 15:22 | 47.48808 | 8.22456 | 11743 ft | 354 kts | 99° |
| 2026-05-07 15:22 | 47.48463 | 8.26080 | 11256 ft | 353 kts | 99° |
| 2026-05-07 15:23 | 47.48119 | 8.29689 | 10680 ft | 352 kts | 99° |
| 2026-05-07 15:23 | 47.47782 | 8.33229 | 10412 ft | 342 kts | 99° |
| 2026-05-07 15:23 | 47.47459 | 8.36601 | 10271 ft | 328 kts | 99° |
| 2026-05-07 15:23 | 47.47144 | 8.39874 | 10154 ft | 315 kts | 99° |
| 2026-05-07 15:24 | 47.46838 | 8.43045 | 9924 ft | 306 kts | 98° |
| 2026-05-07 15:24 | 47.46911 | 8.46133 | 9512 ft | 304 kts | 76° |
| 2026-05-07 15:24 | 47.47829 | 8.48909 | 9058 ft | 301 kts | 50° |
| 2026-05-07 15:24 | 47.49410 | 8.50823 | 8617 ft | 295 kts | 24° |
| 2026-05-07 15:25 | 47.51369 | 8.51549 | 8186 ft | 288 kts | 358° |
| 2026-05-07 15:25 | 47.53293 | 8.50960 | 7751 ft | 281 kts | 333° |
| 2026-05-07 15:25 | 47.54980 | 8.49523 | 7338 ft | 278 kts | 324° |
| 2026-05-07 15:25 | 47.56574 | 8.47990 | 6893 ft | 274 kts | 326° |
| 2026-05-07 15:26 | 47.58222 | 8.46555 | 6299 ft | 272 kts | 329° |
| 2026-05-07 15:26 | 47.59882 | 8.45285 | 6054 ft | 267 kts | 332° |
| 2026-05-07 15:26 | 47.61573 | 8.44097 | 5926 ft | 268 kts | 334° |
| 2026-05-07 15:26 | 47.63275 | 8.42955 | 5787 ft | 268 kts | 334° |
| 2026-05-07 15:27 | 47.64962 | 8.41840 | 5477 ft | 269 kts | 334° |
| 2026-05-07 15:27 | 47.66479 | 8.40282 | 5222 ft | 262 kts | 310° |
| 2026-05-07 15:27 | 47.67302 | 8.37922 | 4910 ft | 258 kts | 281° |
| 2026-05-07 15:27 | 47.67205 | 8.35304 | 4889 ft | 261 kts | 252° |
| 2026-05-07 15:28 | 47.66244 | 8.33003 | 4764 ft | 267 kts | 225° |
| 2026-05-07 15:28 | 47.64675 | 8.31616 | 4489 ft | 267 kts | 199° |
| 2026-05-07 15:28 | 47.62846 | 8.31489 | 4256 ft | 268 kts | 166° |
| 2026-05-07 15:28 | 47.61225 | 8.32948 | 4153 ft | 279 kts | 131° |
| 2026-05-07 15:29 | 47.60186 | 8.35307 | 4070 ft | 276 kts | 119° |
| 2026-05-07 15:29 | 47.59256 | 8.37667 | 3989 ft | 272 kts | 123° |
| 2026-05-07 15:29 | 47.58110 | 8.39869 | 3988 ft | 267 kts | 133° |
| 2026-05-07 15:29 | 47.56796 | 8.41856 | 3791 ft | 268 kts | 136° |
| 2026-05-07 15:30 | 47.55476 | 8.43635 | 3444 ft | 245 kts | 136° |
| 2026-05-07 15:30 | 47.54300 | 8.45258 | 3139 ft | 221 kts | 137° |
| 2026-05-07 15:30 | 47.53224 | 8.46735 | 2839 ft | 200 kts | 137° |
| 2026-05-07 15:30 | 47.52229 | 8.48093 | 2640 ft | 195 kts | 137° |
| 2026-05-07 15:31 | 47.51231 | 8.49464 | 2348 ft | 195 kts | 137° |
| 2026-05-07 15:31 | 47.50177 | 8.50908 | 2056 ft | 213 kts | 136° |
| 2026-05-07 15:31 | 47.49154 | 8.52313 | 1693 ft | 193 kts | 135° |
| 2026-05-07 15:31 | 47.48226 | 8.53594 | 1447 ft | 167 kts | 136° |
| 2026-05-07 15:32 | 47.47473 | 8.54632 | 1403 ft | 113 kts | 136° |
| 2026-05-07 15:32 | 47.47041 | 8.55220 | 1397 ft | 64 kts | 136° |
| 2026-05-07 15:32 | 47.46798 | 8.55536 | 1402 ft | 38 kts | 135° |
| 2026-05-07 15:32 | 47.46596 | 8.55678 | 1399 ft | 19 kts | 165° |
| 2026-05-07 15:33 | 47.46549 | 8.55694 | 1400 ft | 9 kts | 167° |
| 2026-05-07 15:33 | 47.46460 | 8.55725 | 1400 ft | 16 kts | 166° |
| 2026-05-07 15:33 | 47.46355 | 8.55794 | 1401 ft | 17 kts | 140° |
| 2026-05-07 15:33 | 47.46268 | 8.55881 | 1398 ft | 14 kts | 180° |
| 2026-05-07 15:34 | 47.46226 | 8.55803 | 1399 ft | 9 kts | 245° |
| 2026-05-07 15:34 | 47.46175 | 8.55783 | 1397 ft | 8 kts | 193° |
| 2026-05-07 15:34 | 47.46151 | 8.55779 | 1402 ft | 0 kts | 184° |
| 2026-05-07 15:34 | 47.46147 | 8.55778 | 1401 ft | 0 kts | 185° |